Time;durP1;ratioP1;P1;durP2;ratioP2;P2;SDS_P1;SDS_P2;PMS_P1;PMS_P2;Temp;Humidity;BMP_temperature;BMP_pressure;BME280_temperature;BME280_humidity;BME280_pressure;Samples;Min_cycle;Max_cycle;Signal;HPM_P1;HPM_P2
2023/10/26 00:01:38;;;;;;;;;;;;;;;11.66;88.76;99008.81;4193759;28;20007;-69
2023/10/26 00:03:39;;;;;;;;;;;;;;;11.64;88.75;99016.31;4195094;28;20024;-69
2023/10/26 00:05:41;;;;;;;;;;;;;;;11.65;88.97;99007.16;4195331;28;20167;-69
2023/10/26 00:07:43;;;;;;;;;;;;;;;11.64;89.19;99008.19;4194284;28;20015;-72
2023/10/26 00:09:45;;;;;;;;;;;;;;;11.63;88.96;99006.56;4195889;28;20015;-69
2023/10/26 00:11:48;;;;;;;;;;;;;;;11.64;89.12;99002.78;4196244;28;20023;-69
2023/10/26 00:13:50;;;;;;;;;;;;;;;11.62;89.39;98999.50;4195451;28;20027;-68
2023/10/26 00:15:52;;;;;;;;;;;;;;;11.63;89.49;98994.91;4193818;28;20023;-69
2023/10/26 00:17:55;;;;;;;;;;;;;;;11.63;89.57;98997.59;4194997;28;20466;-69
2023/10/26 00:19:57;;;;;;;;;;;;;;;11.61;89.55;98992.41;4194901;28;19994;-69
2023/10/26 00:21:58;;;;;;;;;;;;;;;11.60;89.50;98990.78;4194999;28;20023;-69
2023/10/26 00:24:00;;;;;;;;;;;;;;;11.61;89.82;98991.59;4194414;28;20016;-69
2023/10/26 00:26:02;;;;;;;;;;;;;;;11.60;89.69;98982.69;4195064;28;20030;-69
2023/10/26 00:28:05;;;;;;;;;;;;;;;11.58;89.63;98984.75;4194789;28;20015;-69
2023/10/26 00:30:09;;;;;;;;;;;;;;;11.60;90.05;98984.53;4193370;28;20048;-69
2023/10/26 00:32:12;;;;;;;;;;;;;;;11.58;89.95;98982.06;4193100;28;20004;-69
2023/10/26 00:34:16;;;;;;;;;;;;;;;11.58;89.98;98973.13;4193564;28;20450;-69
2023/10/26 00:36:17;;;;;;;;;;;;;;;11.58;90.25;98973.13;4194636;28;20015;-68
2023/10/26 00:38:19;;;;;;;;;;;;;;;11.58;90.24;98971.25;4194609;28;19955;-69
2023/10/26 00:40:21;;;;;;;;;;;;;;;11.59;90.22;98970.19;4194590;28;20299;-69
2023/10/26 00:42:23;;;;;;;;;;;;;;;11.59;90.07;98974.78;4194854;28;20023;-68
2023/10/26 00:44:25;;;;;;;;;;;;;;;11.57;90.11;98966.91;4195383;28;20024;-69
2023/10/26 00:46:27;;;;;;;;;;;;;;;11.56;90.14;98964.44;4193690;28;20438;-69
2023/10/26 00:48:29;;;;;;;;;;;;;;;11.55;90.47;98963.59;4193292;28;20039;-68
2023/10/26 00:50:31;;;;;;;;;;;;;;;11.54;90.44;98965.47;4194111;28;20035;-69
2023/10/26 00:52:35;;;;;;;;;;;;;;;11.55;90.48;98958.19;4194024;28;20015;-69
2023/10/26 00:54:37;;;;;;;;;;;;;;;11.53;90.29;98960.28;4192386;28;20019;-68
2023/10/26 00:56:39;;;;;;;;;;;;;;;11.53;90.56;98953.00;4193793;28;20003;-69
2023/10/26 00:58:41;;;;;;;;;;;;;;;11.53;90.67;98950.28;4193930;28;20027;-69
2023/10/26 01:00:44;;;;;;;;;;;;;;;11.55;90.52;98944.66;4193329;28;20482;-69
2023/10/26 01:02:46;;;;;;;;;;;;;;;11.54;90.66;98945.72;4192948;28;20474;-69
2023/10/26 01:04:48;;;;;;;;;;;;;;;11.56;90.38;98943.63;4194938;28;20015;-68
2023/10/26 01:06:52;;;;;;;;;;;;;;;11.56;90.18;98943.63;4195038;28;20024;-68
2023/10/26 01:08:54;;;;;;;;;;;;;;;11.56;90.21;98943.63;4193438;28;20035;-68
2023/10/26 01:10:57;;;;;;;;;;;;;;;11.57;90.32;98945.28;4192168;28;20019;-68
2023/10/26 01:12:59;;;;;;;;;;;;;;;11.57;90.33;98939.88;4193926;28;20062;-68
2023/10/26 01:15:00;;;;;;;;;;;;;;;11.57;90.27;98936.31;4194569;28;20024;-68
2023/10/26 01:17:02;;;;;;;;;;;;;;;11.57;90.35;98929.06;4194689;28;19924;-69
2023/10/26 01:19:04;;;;;;;;;;;;;;;11.56;90.24;98930.09;4193340;28;20012;-69
2023/10/26 01:21:07;;;;;;;;;;;;;;;11.55;90.41;98931.13;4193597;28;19925;-69
2023/10/26 01:23:09;;;;;;;;;;;;;;;11.54;90.62;98924.91;4193600;28;20521;-69
2023/10/26 01:25:11;;;;;;;;;;;;;;;11.54;90.28;98924.91;4193473;28;20015;-68
2023/10/26 01:27:13;;;;;;;;;;;;;;;11.54;90.21;98934.91;4193362;28;20665;-68
2023/10/26 01:29:15;;;;;;;;;;;;;;;11.54;90.20;98927.63;4194658;28;20031;-68
2023/10/26 01:31:16;;;;;;;;;;;;;;;11.54;90.28;98926.81;4192614;28;20055;-69
2023/10/26 01:33:18;;;;;;;;;;;;;;;11.53;90.62;98934.06;4195799;28;19924;-68
2023/10/26 01:35:19;;;;;;;;;;;;;;;11.52;90.69;98924.34;4195241;28;20048;-68
2023/10/26 01:37:21;;;;;;;;;;;;;;;11.52;90.96;98928.94;4196121;28;20019;-68
2023/10/26 01:39:25;;;;;;;;;;;;;;;11.50;90.89;98921.03;4195443;28;19982;-68
2023/10/26 01:41:31;;;;;;;;;;;;;;;11.52;91.03;98918.09;4195538;28;19954;-68
2023/10/26 01:43:33;;;;;;;;;;;;;;;11.52;90.73;98920.81;4195791;28;20011;-68
2023/10/26 01:45:35;;;;;;;;;;;;;;;11.52;90.77;98910.81;4195910;28;20011;-69
2023/10/26 01:47:37;;;;;;;;;;;;;;;11.51;91.06;98917.25;4187154;28;20031;-69
2023/10/26 01:49:40;;;;;;;;;;;;;;;11.50;90.89;98909.38;4194908;28;20022;-69
2023/10/26 01:51:42;;;;;;;;;;;;;;;11.49;91.25;98905.84;4194182;28;20024;-68
2023/10/26 01:53:44;;;;;;;;;;;;;;;11.51;91.39;98911.84;4195230;28;20031;-68
2023/10/26 01:55:48;;;;;;;;;;;;;;;11.49;91.11;98903.16;4195407;28;20024;-69
2023/10/26 01:57:50;;;;;;;;;;;;;;;11.49;91.17;98905.84;4194733;28;20383;-68
2023/10/26 01:59:55;;;;;;;;;;;;;;;11.48;91.38;98901.50;4196028;28;20019;-68
2023/10/26 02:01:57;;;;;;;;;;;;;;;11.47;91.14;98893.63;4195414;28;20394;-68
2023/10/26 02:03:59;;;;;;;;;;;;;;;11.47;91.43;98896.31;4194700;28;20026;-68
2023/10/26 02:06:03;;;;;;;;;;;;;;;11.47;91.13;98896.31;4193887;28;20019;-68
2023/10/26 02:08:05;;;;;;;;;;;;;;;11.45;91.64;98891.13;4193896;28;20016;-68
2023/10/26 02:10:07;;;;;;;;;;;;;;;11.46;91.41;98891.97;4194265;28;20033;-68
2023/10/26 02:12:11;;;;;;;;;;;;;;;11.46;91.40;98892.81;4194891;28;20015;-68
2023/10/26 02:14:12;;;;;;;;;;;;;;;11.47;91.44;98893.63;4194020;28;20369;-67
2023/10/26 02:16:13;;;;;;;;;;;;;;;11.46;91.68;98894.69;4195145;28;20007;-67
2023/10/26 02:18:16;;;;;;;;;;;;;;;11.46;91.79;98891.97;4194196;28;20031;-67
2023/10/26 02:20:17;;;;;;;;;;;;;;;11.47;91.84;98893.63;4193382;28;20490;-68
2023/10/26 02:22:20;;;;;;;;;;;;;;;11.46;91.77;98884.69;4192833;28;19924;-68
2023/10/26 02:24:22;;;;;;;;;;;;;;;11.46;91.69;98871.16;4192670;28;20015;-67
2023/10/26 02:26:24;;;;;;;;;;;;;;;11.45;91.82;98874.91;4193180;28;20468;-68
2023/10/26 02:28:27;;;;;;;;;;;;;;;11.44;91.92;98870.59;4192425;28;20147;-68
2023/10/26 02:30:29;;;;;;;;;;;;;;;11.44;91.91;98881.41;4192639;28;20019;-68
2023/10/26 02:32:31;;;;;;;;;;;;;;;11.45;92.10;98880.31;4192772;28;20023;-68
2023/10/26 02:34:32;;;;;;;;;;;;;;;11.44;92.30;98870.59;4193726;28;20024;-68
2023/10/26 02:36:35;;;;;;;;;;;;;;;11.45;92.33;98871.41;4192822;28;20011;-68
2023/10/26 02:38:37;;;;;;;;;;;;;;;11.44;92.38;98877.84;4192280;28;20035;-69
2023/10/26 02:40:39;;;;;;;;;;;;;;;11.45;92.54;98871.41;4193524;28;20023;-68
2023/10/26 02:42:41;;;;;;;;;;;;;;;11.43;92.60;98871.63;4192539;28;19925;-68
2023/10/26 02:44:45;;;;;;;;;;;;;;;11.43;92.72;98873.53;4191117;28;20015;-68
2023/10/26 02:46:47;;;;;;;;;;;;;;;11.43;92.62;98865.41;4193934;28;20015;-68
2023/10/26 02:48:48;;;;;;;;;;;;;;;11.43;92.73;98871.63;4192702;28;20027;-68
2023/10/26 02:50:50;;;;;;;;;;;;;;;11.44;92.67;98867.03;4192553;28;20438;-68
2023/10/26 02:52:52;;;;;;;;;;;;;;;11.44;92.89;98865.19;4192808;28;20019;-68
2023/10/26 02:54:54;;;;;;;;;;;;;;;11.45;92.56;98860.59;4194843;28;19936;-68
2023/10/26 02:56:56;;;;;;;;;;;;;;;11.45;92.62;98861.41;4196676;28;20011;-67
2023/10/26 02:58:58;;;;;;;;;;;;;;;11.44;92.67;98862.47;4196124;28;20437;-67
2023/10/26 03:01:01;;;;;;;;;;;;;;;11.43;92.77;98858.13;4194966;28;20020;-68
2023/10/26 03:03:03;;;;;;;;;;;;;;;11.44;92.61;98861.63;4212250;28;20456;-68
2023/10/26 03:05:05;;;;;;;;;;;;;;;11.43;92.93;98865.41;4195530;28;20056;-70
2023/10/26 03:07:07;;;;;;;;;;;;;;;11.42;93.12;98863.75;4197055;28;20024;-68
2023/10/26 03:09:09;;;;;;;;;;;;;;;11.42;93.15;98861.84;4194345;28;20051;-69
2023/10/26 03:11:11;;;;;;;;;;;;;;;11.42;93.33;98861.03;4210128;28;20027;-68
2023/10/26 03:13:13;;;;;;;;;;;;;;;11.42;93.38;98859.16;4196037;28;20019;-69
2023/10/26 03:15:15;;;;;;;;;;;;;;;11.41;93.44;98852.13;4196425;28;20039;-67
2023/10/26 03:17:19;;;;;;;;;;;;;;;11.40;93.29;98858.56;4195778;28;20027;-68
2023/10/26 03:19:21;;;;;;;;;;;;;;;11.40;93.46;98857.75;4197161;28;20028;-68
2023/10/26 03:21:23;;;;;;;;;;;;;;;11.40;93.58;98852.34;4195625;28;20028;-69
2023/10/26 03:23:25;;;;;;;;;;;;;;;11.41;93.68;98857.53;4196619;28;20035;-68
2023/10/26 03:25:26;;;;;;;;;;;;;;;11.40;93.54;98852.34;4196598;28;20051;-68
2023/10/26 03:27:29;;;;;;;;;;;;;;;11.40;93.61;98847.75;4196156;28;20498;-69
2023/10/26 03:29:31;;;;;;;;;;;;;;;11.40;93.82;98852.34;4195172;28;20011;-68
2023/10/26 03:31:33;;;;;;;;;;;;;;;11.39;93.44;98856.91;4209782;28;20015;-68
2023/10/26 03:33:37;;;;;;;;;;;;;;;11.40;93.54;98845.06;4194872;28;20023;-68
2023/10/26 03:35:39;;;;;;;;;;;;;;;11.39;93.66;98851.50;4195581;28;20626;-68
2023/10/26 03:37:41;;;;;;;;;;;;;;;11.38;93.74;98851.72;4194960;28;20028;-68
2023/10/26 03:39:43;;;;;;;;;;;;;;;11.38;93.71;98859.84;4195347;28;20304;-68
2023/10/26 03:41:45;;;;;;;;;;;;;;;11.36;93.93;98850.09;4194161;28;20058;-68
2023/10/26 03:43:47;;;;;;;;;;;;;;;11.37;94.06;98856.31;4195172;28;19925;-68
2023/10/26 03:45:49;;;;;;;;;;;;;;;11.36;94.32;98850.09;4195346;28;20457;-68
2023/10/26 03:47:51;;;;;;;;;;;;;;;11.36;94.61;98851.97;4195578;28;20027;-68
2023/10/26 03:49:54;;;;;;;;;;;;;;;11.36;94.79;98846.56;4195916;28;20370;-68
2023/10/26 03:51:56;;;;;;;;;;;;;;;11.35;94.98;98847.63;4194662;28;20019;-68
2023/10/26 03:53:59;;;;;;;;;;;;;;;11.35;94.89;98850.34;4194045;28;20019;-68
2023/10/26 03:56:02;;;;;;;;;;;;;;;11.36;94.95;98850.09;4195140;28;20063;-68
2023/10/26 03:58:04;;;;;;;;;;;;;;;11.36;94.66;98847.41;4187660;28;20030;-68
2023/10/26 04:00:09;;;;;;;;;;;;;;;11.35;94.71;98842.22;4194704;28;20031;-68
2023/10/26 04:02:14;;;;;;;;;;;;;;;11.35;95.04;98851.16;4193510;28;20023;-68
2023/10/26 04:04:17;;;;;;;;;;;;;;;11.35;94.99;98844.94;4194207;28;19931;-68
2023/10/26 04:06:20;;;;;;;;;;;;;;;11.35;95.21;98840.34;4195433;28;20055;-68
2023/10/26 04:08:22;;;;;;;;;;;;;;;11.35;95.26;98839.53;4195330;28;20095;-68
2023/10/26 04:10:24;;;;;;;;;;;;;;;11.34;95.25;98835.16;4194682;28;20027;-68
2023/10/26 04:12:26;;;;;;;;;;;;;;;11.34;95.28;98837.84;4193332;28;20024;-68
2023/10/26 04:14:28;;;;;;;;;;;;;;;11.35;95.34;98839.53;4193889;28;20035;-68
2023/10/26 04:16:31;;;;;;;;;;;;;;;11.36;95.19;98841.16;4194316;28;20106;-68
2023/10/26 04:18:33;;;;;;;;;;;;;;;11.33;95.36;98844.31;4192204;28;20023;-69
2023/10/26 04:20:35;;;;;;;;;;;;;;;11.33;95.64;98839.75;4195213;28;20019;-68
2023/10/26 04:22:38;;;;;;;;;;;;;;;11.33;95.67;98833.50;4193700;28;20852;-68
2023/10/26 04:24:40;;;;;;;;;;;;;;;11.32;95.74;98835.38;4194585;28;20007;-69
2023/10/26 04:26:43;;;;;;;;;;;;;;;11.32;95.74;98838.09;4188115;28;19958;-69
2023/10/26 04:28:44;;;;;;;;;;;;;;;11.30;95.53;98832.09;4194282;28;20020;-69
2023/10/26 04:30:47;;;;;;;;;;;;;;;11.31;95.72;98831.03;4193763;28;20004;-69
2023/10/26 04:32:52;;;;;;;;;;;;;;;11.33;95.86;98838.91;4193977;28;20019;-69
2023/10/26 04:34:54;;;;;;;;;;;;;;;11.32;95.56;98837.28;4195782;28;20366;-69
2023/10/26 04:36:59;;;;;;;;;;;;;;;11.31;95.87;98833.72;4196081;28;20040;-69
2023/10/26 04:39:04;;;;;;;;;;;;;;;11.33;95.70;98828.09;4195702;28;19928;-68
2023/10/26 04:41:05;;;;;;;;;;;;;;;11.33;95.71;98833.50;4195890;28;20031;-69
2023/10/26 04:43:07;;;;;;;;;;;;;;;11.32;95.79;98824.56;4194764;28;20023;-69
2023/10/26 04:45:09;;;;;;;;;;;;;;;11.32;95.68;98829.97;4195430;28;19946;-69
2023/10/26 04:47:12;;;;;;;;;;;;;;;11.31;95.60;98825.63;4195337;28;20538;-69
2023/10/26 04:49:14;;;;;;;;;;;;;;;11.31;95.71;98828.31;4192347;28;20042;-69
2023/10/26 04:51:16;;;;;;;;;;;;;;;11.33;95.77;98825.38;4193197;28;20131;-70
2023/10/26 04:53:18;;;;;;;;;;;;;;;11.33;95.54;98825.38;4192027;28;20019;-70
2023/10/26 04:55:21;;;;;;;;;;;;;;;11.31;95.57;98825.63;4195497;28;20031;-69
2023/10/26 04:57:24;;;;;;;;;;;;;;;11.32;95.43;98829.97;4192600;28;20021;-70
2023/10/26 04:59:29;;;;;;;;;;;;;;;11.31;95.24;98831.03;4192837;28;21942;-69
2023/10/26 05:01:31;;;;;;;;;;;;;;;11.31;95.33;98832.91;4192844;28;20019;-70
2023/10/26 05:03:33;;;;;;;;;;;;;;;11.30;95.10;98824.00;4193423;28;20024;-69
2023/10/26 05:05:35;;;;;;;;;;;;;;;11.31;95.40;98820.22;4193442;28;19939;-69
2023/10/26 05:07:37;;;;;;;;;;;;;;;11.30;95.36;98826.69;4194615;28;20027;-69
2023/10/26 05:09:40;;;;;;;;;;;;;;;11.30;95.52;98824.00;4194403;28;20478;-69
2023/10/26 05:11:43;;;;;;;;;;;;;;;11.31;95.46;98825.63;4193176;28;20019;-69
2023/10/26 05:13:45;;;;;;;;;;;;;;;11.32;95.17;98818.34;4194883;28;20386;-69
2023/10/26 05:15:46;;;;;;;;;;;;;;;11.31;95.08;98822.09;4188933;28;19928;-69
2023/10/26 05:17:51;;;;;;;;;;;;;;;11.31;95.21;98820.22;4202762;28;19924;-69
2023/10/26 05:19:53;;;;;;;;;;;;;;;11.30;95.05;98821.28;4193830;28;20031;-69
2023/10/26 05:21:55;;;;;;;;;;;;;;;11.31;95.40;98827.50;4193065;28;20023;-69
2023/10/26 05:23:57;;;;;;;;;;;;;;;11.29;95.24;98824.22;4193890;28;20359;-69
2023/10/26 05:25:59;;;;;;;;;;;;;;;11.28;95.21;98820.66;4193220;28;20027;-70
2023/10/26 05:28:03;;;;;;;;;;;;;;;11.28;94.97;98815.25;4193716;28;20015;-70
2023/10/26 05:30:07;;;;;;;;;;;;;;;11.28;95.33;98819.84;4193940;28;20023;-70
2023/10/26 05:32:09;;;;;;;;;;;;;;;11.28;95.25;98817.97;4193177;28;20342;-70
2023/10/26 05:34:11;;;;;;;;;;;;;;;11.27;95.52;98813.63;4194593;28;20381;-69
2023/10/26 05:36:13;;;;;;;;;;;;;;;11.25;95.20;98813.00;4193285;28;20365;-67
2023/10/26 05:38:18;;;;;;;;;;;;;;;11.25;95.42;98807.63;4193763;28;20035;-68
2023/10/26 05:40:20;;;;;;;;;;;;;;;11.25;95.40;98812.19;4193466;28;20036;-68
2023/10/26 05:42:22;;;;;;;;;;;;;;;11.24;95.29;98815.94;4193614;28;20031;-68
2023/10/26 05:44:27;;;;;;;;;;;;;;;11.24;95.61;98815.94;4193438;28;20016;-69
2023/10/26 05:46:29;;;;;;;;;;;;;;;11.23;95.87;98817.84;4194524;28;19936;-69
2023/10/26 05:48:33;;;;;;;;;;;;;;;11.23;95.80;98817.03;4193652;28;20035;-68
2023/10/26 05:50:40;;;;;;;;;;;;;;;11.22;95.83;98821.56;4192987;28;20476;-68
2023/10/26 05:52:44;;;;;;;;;;;;;;;11.23;95.89;98827.81;4193878;28;20016;-68
2023/10/26 05:54:46;;;;;;;;;;;;;;;11.23;95.88;98828.66;4192587;28;20454;-68
2023/10/26 05:56:47;;;;;;;;;;;;;;;11.23;96.03;98825.13;4193554;28;20599;-68
2023/10/26 05:58:49;;;;;;;;;;;;;;;11.22;96.00;98826.97;4191217;28;19975;-68
2023/10/26 06:00:52;;;;;;;;;;;;;;;11.24;95.98;98832.16;4191987;28;20034;-68
2023/10/26 06:02:54;;;;;;;;;;;;;;;11.24;95.84;98829.47;4193577;28;20023;-68
2023/10/26 06:04:56;;;;;;;;;;;;;;;11.23;96.09;98831.34;4193012;28;20015;-68
2023/10/26 06:06:57;;;;;;;;;;;;;;;11.23;96.24;98835.94;4191986;28;19970;-68
2023/10/26 06:08:59;;;;;;;;;;;;;;;11.21;96.20;98829.91;4192950;28;19928;-68
2023/10/26 06:11:02;;;;;;;;;;;;;;;11.20;96.21;98831.00;4193855;28;20022;-68
2023/10/26 06:13:03;;;;;;;;;;;;;;;11.21;96.17;98838.03;4193796;28;20018;-67
2023/10/26 06:15:08;;;;;;;;;;;;;;;11.22;96.31;98837.78;4193583;28;20039;-67
2023/10/26 06:17:11;;;;;;;;;;;;;;;11.21;96.45;98841.56;4194120;28;20023;-68
2023/10/26 06:19:13;;;;;;;;;;;;;;;11.21;96.11;98840.72;4186549;28;20298;-68
2023/10/26 06:21:15;;;;;;;;;;;;;;;11.19;96.37;98835.56;4192993;28;20023;-68
2023/10/26 06:23:17;;;;;;;;;;;;;;;11.20;96.15;98836.38;4191807;28;20828;-68
2023/10/26 06:25:20;;;;;;;;;;;;;;;11.21;96.32;98848.81;4194429;28;20037;-67
2023/10/26 06:27:22;;;;;;;;;;;;;;;11.22;96.32;98853.19;4194706;28;19925;-68
2023/10/26 06:29:25;;;;;;;;;;;;;;;11.21;96.46;98854.22;4196138;28;20019;-69
2023/10/26 06:31:27;;;;;;;;;;;;;;;11.21;96.58;98852.38;4196001;28;20019;-68
2023/10/26 06:33:29;;;;;;;;;;;;;;;11.22;96.37;98851.31;4197937;28;20027;-68
2023/10/26 06:35:32;;;;;;;;;;;;;;;11.21;96.69;98849.69;4197110;28;20011;-68
2023/10/26 06:37:34;;;;;;;;;;;;;;;11.22;96.55;98851.31;4195761;28;20090;-69
2023/10/26 06:39:36;;;;;;;;;;;;;;;11.22;96.87;98847.78;4197606;28;20458;-69
2023/10/26 06:41:38;;;;;;;;;;;;;;;11.22;96.83;98848.59;4196992;28;20023;-68
2023/10/26 06:43:39;;;;;;;;;;;;;;;11.22;96.96;98843.19;4196919;28;20368;-67
2023/10/26 06:45:41;;;;;;;;;;;;;;;11.22;96.66;98845.09;4196845;28;19925;-69
2023/10/26 06:47:43;;;;;;;;;;;;;;;11.22;96.76;98842.38;4197062;28;19924;-69
2023/10/26 06:49:47;;;;;;;;;;;;;;;11.21;96.78;98843.44;4197380;28;20039;-69
2023/10/26 06:51:50;;;;;;;;;;;;;;;11.21;97.14;98852.38;4196645;28;20043;-69
2023/10/26 06:53:52;;;;;;;;;;;;;;;11.18;96.83;98848.25;4196439;28;20019;-67
2023/10/26 06:55:54;;;;;;;;;;;;;;;11.23;96.86;98854.84;4196377;28;20031;-69
2023/10/26 06:57:56;;;;;;;;;;;;;;;11.22;96.94;98853.19;4196840;28;20035;-68
2023/10/26 06:59:58;;;;;;;;;;;;;;;11.17;97.28;98849.31;4196375;28;20019;-68
2023/10/26 07:02:00;;;;;;;;;;;;;;;11.22;97.25;98859.41;4195101;28;20346;-66
2023/10/26 07:04:02;;;;;;;;;;;;;;;11.21;97.26;98857.78;4197572;28;20023;-68
2023/10/26 07:06:06;;;;;;;;;;;;;;;11.22;97.00;98851.31;4196859;28;20099;-66
2023/10/26 07:08:08;;;;;;;;;;;;;;;11.22;96.90;98853.19;4196663;28;19935;-69
2023/10/26 07:10:14;;;;;;;;;;;;;;;11.22;96.86;98867.50;4193518;28;20023;-68
2023/10/26 07:12:17;;;;;;;;;;;;;;;11.23;97.06;98866.47;4194894;28;20015;-68
2023/10/26 07:14:18;;;;;;;;;;;;;;;11.22;97.16;98869.41;4195629;28;20028;-68
2023/10/26 07:16:20;;;;;;;;;;;;;;;11.24;97.06;98872.69;4195379;28;20016;-69
2023/10/26 07:18:21;;;;;;;;;;;;;;;11.25;97.21;98879.75;4195312;28;20024;-68
2023/10/26 07:20:25;;;;;;;;;;;;;;;11.24;96.99;98870.00;4195504;28;19924;-68
2023/10/26 07:22:28;;;;;;;;;;;;;;;11.24;97.27;98872.69;4196594;28;20011;-68
2023/10/26 07:24:30;;;;;;;;;;;;;;;11.25;97.11;98882.47;4196372;28;20806;-68
2023/10/26 07:26:33;;;;;;;;;;;;;;;11.25;97.32;98885.97;4196717;28;20023;-68
2023/10/26 07:28:35;;;;;;;;;;;;;;;11.24;97.29;98878.94;4196272;28;20028;-68
2023/10/26 07:30:39;;;;;;;;;;;;;;;11.25;97.32;98888.69;4195097;28;20028;-69
2023/10/26 07:32:41;;;;;;;;;;;;;;;11.26;97.36;98884.13;4194775;28;20018;-68
2023/10/26 07:34:43;;;;;;;;;;;;;;;11.26;97.69;98889.53;4196027;28;20090;-69
2023/10/26 07:36:45;;;;;;;;;;;;;;;11.26;97.32;98895.75;4196150;28;20526;-69
2023/10/26 07:38:48;;;;;;;;;;;;;;;11.26;97.50;98903.03;4195905;28;20032;-69
2023/10/26 07:40:51;;;;;;;;;;;;;;;11.27;97.56;98896.56;4195052;28;20038;-69
2023/10/26 07:42:53;;;;;;;;;;;;;;;11.28;97.56;98898.22;4196298;28;20020;-68
2023/10/26 07:44:55;;;;;;;;;;;;;;;11.26;97.49;98890.34;4191983;28;19951;-68
2023/10/26 07:46:56;;;;;;;;;;;;;;;11.27;97.48;98897.41;4196352;28;20373;-69
2023/10/26 07:48:59;;;;;;;;;;;;;;;11.27;97.42;98894.72;4196161;28;19932;-68
2023/10/26 07:51:01;;;;;;;;;;;;;;;11.29;97.37;98891.78;4195970;28;20007;-68
2023/10/26 07:53:05;;;;;;;;;;;;;;;11.29;97.49;98899.88;4196997;28;20031;-68
2023/10/26 07:55:09;;;;;;;;;;;;;;;11.29;97.48;98894.47;4171549;28;19933;-69
2023/10/26 07:57:11;;;;;;;;;;;;;;;11.29;97.63;98891.78;4194748;28;20020;-68
2023/10/26 07:59:13;;;;;;;;;;;;;;;11.28;97.46;98898.22;4195978;28;20023;-69
2023/10/26 08:01:15;;;;;;;;;;;;;;;11.28;97.39;98899.03;4188098;28;19924;-69
2023/10/26 08:03:17;;;;;;;;;;;;;;;11.28;97.46;98895.53;4195162;28;20052;-69
2023/10/26 08:05:19;;;;;;;;;;;;;;;11.28;97.51;98899.03;4195385;28;20486;-69
2023/10/26 08:07:21;;;;;;;;;;;;;;;11.29;97.18;98910.69;4196844;28;20419;-69
2023/10/26 08:09:22;;;;;;;;;;;;;;;11.29;97.17;98908.81;4196497;28;19962;-69
2023/10/26 08:11:25;;;;;;;;;;;;;;;11.29;97.24;98905.28;4195844;28;19932;-69
2023/10/26 08:13:27;;;;;;;;;;;;;;;11.28;97.53;98906.34;4193669;28;19932;-69
2023/10/26 08:15:30;;;;;;;;;;;;;;;11.30;97.76;98902.38;4195919;28;20023;-69
2023/10/26 08:17:34;;;;;;;;;;;;;;;11.30;97.92;98907.75;4196393;28;20461;-69
2023/10/26 08:19:38;;;;;;;;;;;;;;;11.31;97.70;98908.59;4195232;28;20015;-68
2023/10/26 08:21:40;;;;;;;;;;;;;;;11.30;97.78;98912.31;4194689;28;20064;-69
2023/10/26 08:23:42;;;;;;;;;;;;;;;11.28;97.72;98912.56;4195465;28;20445;-69
2023/10/26 08:25:44;;;;;;;;;;;;;;;11.29;97.68;98914.22;4195446;28;20018;-69
2023/10/26 08:27:48;;;;;;;;;;;;;;;11.29;97.89;98918.81;4195877;28;20007;-69
2023/10/26 08:29:50;;;;;;;;;;;;;;;11.30;97.95;98913.16;4193298;28;19928;-68
2023/10/26 08:31:51;;;;;;;;;;;;;;;11.31;98.04;98927.50;4194649;28;20450;-68
2023/10/26 08:33:53;;;;;;;;;;;;;;;11.30;98.28;98926.69;4194955;28;20019;-68
2023/10/26 08:35:55;;;;;;;;;;;;;;;11.31;98.33;98930.19;4195247;28;20465;-69
2023/10/26 08:37:56;;;;;;;;;;;;;;;11.32;98.38;98931.88;4194761;28;20062;-68
2023/10/26 08:39:58;;;;;;;;;;;;;;;11.32;98.40;98935.38;4195366;28;20436;-69
2023/10/26 08:42:01;;;;;;;;;;;;;;;11.32;98.33;98935.38;4195484;28;20020;-69
2023/10/26 08:44:04;;;;;;;;;;;;;;;11.33;98.33;98941.59;4194786;28;20043;-69
2023/10/26 08:46:06;;;;;;;;;;;;;;;11.33;98.53;98936.19;4194682;28;20012;-69
2023/10/26 08:48:07;;;;;;;;;;;;;;;11.34;98.34;98944.09;4195241;28;20023;-69
2023/10/26 08:50:09;;;;;;;;;;;;;;;11.34;98.51;98937.84;4194038;28;19964;-69
2023/10/26 08:52:11;;;;;;;;;;;;;;;11.35;98.42;98942.22;4194229;28;19971;-69
2023/10/26 08:54:12;;;;;;;;;;;;;;;11.34;98.39;98940.56;4195267;28;20027;-68
2023/10/26 08:56:15;;;;;;;;;;;;;;;11.35;98.24;98947.63;4195652;28;19924;-69
2023/10/26 08:58:17;;;;;;;;;;;;;;;11.35;98.31;98950.34;4195931;28;20011;-69
2023/10/26 09:00:21;;;;;;;;;;;;;;;11.34;98.70;98954.88;4193927;28;20024;-69
2023/10/26 09:02:23;;;;;;;;;;;;;;;11.36;98.79;98949.25;4193689;28;20020;-68
2023/10/26 09:04:25;;;;;;;;;;;;;;;11.36;98.82;98954.66;4194664;28;20011;-69
2023/10/26 09:06:27;;;;;;;;;;;;;;;11.35;98.91;98959.25;4194865;28;19924;-69
2023/10/26 09:08:29;;;;;;;;;;;;;;;11.35;98.81;98959.25;4194869;28;20024;-69
2023/10/26 09:10:32;;;;;;;;;;;;;;;11.37;99.04;98961.72;4195149;28;19974;-69
2023/10/26 09:12:35;;;;;;;;;;;;;;;11.38;98.88;98957.16;4195201;28;20019;-69
2023/10/26 09:14:37;;;;;;;;;;;;;;;11.37;98.96;98959.03;4195325;28;20015;-68
2023/10/26 09:16:41;;;;;;;;;;;;;;;11.39;99.27;98962.31;4195795;28;20462;-68
2023/10/26 09:18:48;;;;;;;;;;;;;;;11.40;99.21;98965.88;4195058;28;20028;-68
2023/10/26 09:21:03;;;;;;;;;;;;;;;11.40;99.13;98972.09;4195148;28;20027;-69
2023/10/26 09:23:05;;;;;;;;;;;;;;;11.40;99.14;98965.88;4194123;28;20028;-68
2023/10/26 09:25:06;;;;;;;;;;;;;;;11.40;98.99;98964.00;4194108;28;20027;-68
2023/10/26 09:27:08;;;;;;;;;;;;;;;11.41;98.91;98968.34;4195308;28;20019;-69
2023/10/26 09:29:09;;;;;;;;;;;;;;;11.42;99.11;98966.47;4194288;28;20035;-69
2023/10/26 09:31:11;;;;;;;;;;;;;;;11.43;98.98;98968.94;4192630;28;19972;-69
2023/10/26 09:33:23;;;;;;;;;;;;;;;11.42;99.33;98964.56;4194051;28;20007;-68
2023/10/26 09:35:27;;;;;;;;;;;;;;;11.43;99.13;98965.41;4185600;28;20095;-69
2023/10/26 09:37:29;;;;;;;;;;;;;;;11.43;99.21;98963.53;4192962;28;20023;-69
2023/10/26 09:39:32;;;;;;;;;;;;;;;11.45;99.14;98976.81;4194671;28;20027;-67
2023/10/26 09:41:35;;;;;;;;;;;;;;;11.45;99.38;98972.22;4193919;28;20019;-69
2023/10/26 09:43:35;;;;;;;;;;;;;;;11.47;99.17;98980.13;4194525;28;20573;-69
2023/10/26 09:45:38;;;;;;;;;;;;;;;11.48;99.43;98976.38;4194316;28;19937;-68
2023/10/26 09:47:39;;;;;;;;;;;;;;;11.47;99.31;98978.25;4193850;28;20015;-69
2023/10/26 09:49:42;;;;;;;;;;;;;;;11.48;99.34;98974.50;4194310;28;19929;-69
2023/10/26 09:51:43;;;;;;;;;;;;;;;11.48;99.59;98985.31;4193557;28;20359;-69
2023/10/26 09:53:46;;;;;;;;;;;;;;;11.50;99.35;98982.38;4193483;28;19924;-67
2023/10/26 09:55:48;;;;;;;;;;;;;;;11.50;99.46;98983.22;4195192;28;20031;-68
2023/10/26 09:57:51;;;;;;;;;;;;;;;11.50;99.43;98987.78;4193490;28;20913;-68
2023/10/26 09:59:53;;;;;;;;;;;;;;;11.51;99.39;98984.84;4194357;28;20037;-69
2023/10/26 10:01:55;;;;;;;;;;;;;;;11.51;99.46;98990.25;4196527;28;20019;-69
2023/10/26 10:03:57;;;;;;;;;;;;;;;11.49;99.54;98986.97;4198770;28;20034;-69
2023/10/26 10:06:02;;;;;;;;;;;;;;;11.52;99.47;98989.22;4200277;28;20026;-70
2023/10/26 10:08:03;;;;;;;;;;;;;;;11.53;99.22;98992.72;4200907;28;20012;-68
2023/10/26 10:10:06;;;;;;;;;;;;;;;11.52;99.54;98996.50;4199690;28;20035;-69
2023/10/26 10:12:28;;;;;;;;;;;;;;;11.52;99.14;98988.41;4200044;28;19939;-70
2023/10/26 10:14:50;;;;;;;;;;;;;;;11.52;99.20;98989.22;4199796;28;20074;-69
2023/10/26 10:16:53;;;;;;;;;;;;;;;11.53;99.50;98993.56;4199654;28;20008;-69
2023/10/26 10:19:14;;;;;;;;;;;;;;;11.54;99.44;98989.81;4200228;28;20024;-69
2023/10/26 10:21:35;;;;;;;;;;;;;;;11.54;99.54;98987.09;4197919;28;20015;-68
2023/10/26 10:23:37;;;;;;;;;;;;;;;11.56;99.58;98989.56;4199293;28;20024;-69
2023/10/26 10:25:58;;;;;;;;;;;;;;;11.57;99.50;98985.00;4199374;28;20027;-69
2023/10/26 10:28:09;;;;;;;;;;;;;;;11.57;99.61;98990.41;4198614;28;20426;-69
2023/10/26 10:30:11;;;;;;;;;;;;;;;11.57;99.35;98987.69;4198881;28;20046;-69
2023/10/26 10:32:13;;;;;;;;;;;;;;;11.58;99.24;98990.16;4198208;28;20442;-70
2023/10/26 10:34:16;;;;;;;;;;;;;;;11.59;99.45;98991.84;4198863;28;20015;-69
2023/10/26 10:36:19;;;;;;;;;;;;;;;11.59;99.65;98986.44;4199062;28;20430;-69
2023/10/26 10:38:24;;;;;;;;;;;;;;;11.61;99.60;98988.91;4197148;28;20028;-69
2023/10/26 10:40:24;;;;;;;;;;;;;;;11.60;99.38;98996.19;4198548;28;20084;-70